Time;durP1;ratioP1;P1;durP2;ratioP2;P2;SDS_P1;SDS_P2;PMS_P1;PMS_P2;Temp;Humidity;BMP_temperature;BMP_pressure;BME280_temperature;BME280_humidity;BME280_pressure;Samples;Min_cycle;Max_cycle;Signal;HPM_P1;HPM_P2
2022/01/14 00:01:06;;;;;;;10.18;4.90;;;3.90;94.40;;;;;;5098110;28;20439;-80
2022/01/14 00:03:33;;;;;;;11.32;4.95;;;3.90;94.40;;;;;;5114588;28;20039;-78
2022/01/14 00:05:58;;;;;;;9.95;4.28;;;3.90;94.50;;;;;;5081124;28;20042;-79
2022/01/14 00:08:24;;;;;;;11.35;4.65;;;3.80;94.50;;;;;;5132804;27;20122;-79
2022/01/14 00:10:50;;;;;;;8.15;3.50;;;3.90;94.50;;;;;;5097917;28;20046;-79
2022/01/14 00:15:54;;;;;;;9.75;3.50;;;3.80;94.50;;;;;;5116931;28;20410;-80
2022/01/14 00:18:20;;;;;;;8.77;3.75;;;3.90;94.50;;;;;;5114500;28;20032;-80
2022/01/14 00:20:46;;;;;;;9.75;3.70;;;3.90;94.50;;;;;;5097670;28;20035;-79
2022/01/14 00:23:11;;;;;;;7.32;3.35;;;3.90;94.50;;;;;;5098127;28;20089;-80
2022/01/14 00:33:35;;;;;;;8.27;3.90;;;3.90;94.50;;;;;;5105053;27;20035;-79
2022/01/14 00:36:01;;;;;;;9.00;3.88;;;3.90;94.50;;;;;;5117635;28;20035;-79
2022/01/14 00:38:27;;;;;;;8.73;3.80;;;3.80;94.50;;;;;;5136530;27;20359;-79
2022/01/14 00:40:53;;;;;;;8.45;4.10;;;3.80;94.50;;;;;;5085743;28;20039;-79
2022/01/14 00:43:19;;;;;;;7.43;3.55;;;3.80;94.50;;;;;;5120445;28;20035;-79
2022/01/14 00:45:45;;;;;;;8.20;3.22;;;3.80;94.50;;;;;;5137554;28;20055;-79
2022/01/14 00:48:11;;;;;;;7.70;3.50;;;3.70;94.50;;;;;;5102498;28;20035;-79
2022/01/14 00:50:41;;;;;;;7.70;2.95;;;3.80;94.60;;;;;;5101592;28;20039;-79
2022/01/14 00:53:07;;;;;;;7.35;3.20;;;3.80;94.50;;;;;;5116709;28;20064;-79
2022/01/14 00:55:46;;;;;;;9.63;3.25;;;3.80;94.50;;;;;;5102511;27;20130;-79
2022/01/14 01:00:57;;;;;;;7.22;3.00;;;3.80;94.50;;;;;;5136869;27;20122;-79
2022/01/14 01:03:23;;;;;;;6.78;2.53;;;3.90;94.50;;;;;;5101467;28;20525;-79
2022/01/14 01:05:49;;;;;;;7.22;2.83;;;3.90;94.50;;;;;;5100403;28;20047;-79
2022/01/14 01:08:20;;;;;;;7.07;2.63;;;3.80;94.80;;;;;;5117512;28;20050;-79
2022/01/14 01:10:49;;;;;;;7.20;2.65;;;3.80;94.50;;;;;;5084894;28;20747;-80
2022/01/14 01:13:23;;;;;;;6.78;2.63;;;3.90;94.60;;;;;;5101339;28;20039;-79
2022/01/14 01:15:49;;;;;;;8.40;2.95;;;3.90;94.60;;;;;;5081109;28;20039;-79
2022/01/14 01:18:17;;;;;;;5.47;2.47;;;3.80;94.60;;;;;;5100368;28;20031;-79
2022/01/14 01:20:43;;;;;;;7.70;3.38;;;3.80;94.60;;;;;;5100654;28;20431;-79
2022/01/14 01:23:08;;;;;;;6.63;2.80;;;3.80;94.50;;;;;;5117402;28;20046;-79
2022/01/14 01:25:40;;;;;;;8.00;3.13;;;3.90;94.60;;;;;;5117419;28;20397;-80
2022/01/14 01:28:07;;;;;;;7.68;2.50;;;3.90;94.50;;;;;;5101092;27;20118;-79
2022/01/14 01:33:19;;;;;;;8.35;3.20;;;3.70;94.50;;;;;;5106898;28;21291;-79
2022/01/14 01:35:46;;;;;;;7.78;2.97;;;3.80;94.50;;;;;;5099700;28;20469;-80
2022/01/14 01:38:16;;;;;;;9.82;3.65;;;3.80;94.50;;;;;;5117446;28;20077;-79
2022/01/14 01:40:44;;;;;;;7.68;2.83;;;3.90;94.50;;;;;;5100076;28;20080;-79
2022/01/14 01:43:12;;;;;;;6.35;2.75;;;3.90;94.60;;;;;;5135593;28;20058;-79
2022/01/14 01:45:38;;;;;;;6.20;2.47;;;3.90;94.60;;;;;;5083275;27;20032;-79
2022/01/14 01:48:04;;;;;;;6.82;2.58;;;3.90;94.60;;;;;;5116627;28;20118;-80
2022/01/14 01:50:32;;;;;;;7.03;3.05;;;3.90;94.60;;;;;;5135788;28;20042;-79
2022/01/14 01:52:58;;;;;;;6.57;2.80;;;3.90;94.60;;;;;;5114709;28;20073;-79
2022/01/14 01:55:25;;;;;;;7.65;3.33;;;3.90;94.60;;;;;;5116638;28;20063;-79
2022/01/14 01:57:52;;;;;;;6.18;2.50;;;3.90;94.60;;;;;;5116608;28;20071;-79
2022/01/14 02:00:22;;;;;;;6.68;2.75;;;3.90;94.60;;;;;;5116608;28;20046;-79
2022/01/14 02:02:49;;;;;;;7.05;2.67;;;3.90;94.60;;;;;;5116678;28;20043;-79
2022/01/14 02:05:17;;;;;;;6.30;2.88;;;3.90;94.60;;;;;;5099693;28;20389;-79
2022/01/14 02:07:44;;;;;;;5.45;2.28;;;3.80;94.60;;;;;;5082835;28;20134;-79
2022/01/14 02:10:10;;;;;;;6.53;2.50;;;3.80;94.60;;;;;;5135274;28;20054;-79
2022/01/14 02:12:39;;;;;;;6.43;2.70;;;3.80;94.60;;;;;;5135470;28;20131;-79
2022/01/14 02:15:12;;;;;;;5.72;2.50;;;3.80;94.60;;;;;;5117798;28;20051;-79
2022/01/14 02:22:57;;;;;;;8.38;3.28;;;3.90;94.60;;;;;;5104232;28;20126;-79
2022/01/14 02:25:29;;;;;;;8.80;3.50;;;3.70;94.60;;;;;;5099063;28;20046;-80
2022/01/14 02:27:55;;;;;;;;;;;3.80;94.60;;;;;;5116852;28;20047;-79
2022/01/14 02:30:22;;;;;;;10.45;3.58;;;3.90;94.60;;;;;;5135207;27;19911;-79
2022/01/14 02:32:48;;;;;;;8.20;3.53;;;3.70;94.50;;;;;;5116982;28;20035;-79
2022/01/14 02:35:14;;;;;;;8.13;3.90;;;3.70;94.50;;;;;;5135428;28;20367;-79
2022/01/14 02:37:40;;;;;;;6.95;3.33;;;3.70;94.50;;;;;;5115986;28;20137;-79
2022/01/14 02:40:07;;;;;;;6.45;2.80;;;3.70;94.60;;;;;;5116455;28;20039;-79
2022/01/14 02:42:32;;;;;;;6.97;2.90;;;3.70;94.60;;;;;;5116125;28;20393;-79
2022/01/14 02:45:03;;;;;;;7.60;3.10;;;3.70;94.60;;;;;;5098701;28;20081;-79
2022/01/14 02:47:30;;;;;;;8.15;3.30;;;3.70;94.60;;;;;;5099436;28;20069;-79
2022/01/14 02:49:56;;;;;;;7.95;3.45;;;3.70;94.60;;;;;;5115793;28;20043;-79
2022/01/14 02:52:42;;;;;;;8.02;3.20;;;3.70;94.60;;;;;;5098038;28;20375;-79
2022/01/14 02:55:16;;;;;;;7.30;2.95;;;3.80;94.60;;;;;;5115093;28;20051;-79
2022/01/14 02:57:44;;;;;;;8.35;3.30;;;3.70;94.60;;;;;;5117561;28;20046;-79
2022/01/14 03:00:12;;;;;;;7.95;3.00;;;3.70;94.60;;;;;;5100067;28;20059;-79
2022/01/14 03:02:43;;;;;;;8.63;3.67;;;3.70;94.60;;;;;;5101047;28;20046;-79
2022/01/14 03:05:09;;;;;;;9.67;3.80;;;3.60;94.60;;;;;;5116781;28;20042;-79
2022/01/14 03:07:37;;;;;;;5.45;2.65;;;3.60;94.60;;;;;;5099106;28;20043;-79
2022/01/14 03:10:04;;;;;;;6.40;2.75;;;3.60;94.60;;;;;;5134232;27;20047;-79
2022/01/14 03:12:30;;;;;;;8.07;2.90;;;3.70;94.70;;;;;;5115983;28;20081;-79
2022/01/14 03:14:56;;;;;;;5.25;1.92;;;3.60;94.60;;;;;;5098881;28;20092;-79
2022/01/14 03:17:22;;;;;;;5.45;2.10;;;3.60;94.70;;;;;;5098848;28;20393;-79
2022/01/14 03:19:48;;;;;;;4.47;1.98;;;3.60;94.60;;;;;;5098206;28;20066;-79
2022/01/14 03:22:19;;;;;;;5.60;2.15;;;3.70;94.70;;;;;;5098136;28;20035;-79
2022/01/14 03:27:30;;;;;;;7.60;2.97;;;3.60;94.60;;;;;;5105052;28;20062;-79
2022/01/14 03:29:56;;;;;;;5.32;2.70;;;3.70;94.60;;;;;;5115763;28;20039;-79
2022/01/14 03:32:22;;;;;;;5.82;2.35;;;3.70;94.70;;;;;;5134008;27;20073;-79
2022/01/14 03:34:48;;;;;;;6.40;2.30;;;3.60;94.70;;;;;;5114990;28;20043;-79
2022/01/14 03:37:13;;;;;;;5.30;2.33;;;3.60;94.70;;;;;;5133077;27;20405;-79
2022/01/14 03:39:39;;;;;;;8.48;2.67;;;3.70;94.70;;;;;;5098207;28;20526;-79
2022/01/14 03:42:05;;;;;;;5.20;2.22;;;3.70;94.70;;;;;;5098983;28;20070;-79
2022/01/14 03:44:31;;;;;;;6.18;2.55;;;3.60;94.60;;;;;;5079266;28;20063;-79
2022/01/14 03:46:57;;;;;;;5.82;2.33;;;3.70;94.70;;;;;;5115243;28;20073;-80
2022/01/14 03:49:22;;;;;;;5.28;2.30;;;3.70;94.70;;;;;;5115597;28;20043;-79
2022/01/14 03:51:48;;;;;;;6.25;2.45;;;3.70;94.70;;;;;;5099717;28;20467;-79
2022/01/14 03:54:14;;;;;;;7.80;2.60;;;3.70;94.70;;;;;;5115593;28;20084;-79
2022/01/14 03:56:40;;;;;;;7.85;2.65;;;3.70;94.70;;;;;;5082106;28;20043;-79
2022/01/14 03:59:05;;;;;;;4.97;1.92;;;3.70;94.70;;;;;;5133979;27;20096;-79
2022/01/14 04:01:31;;;;;;;5.18;2.17;;;3.70;94.70;;;;;;5115265;28;20073;-79
2022/01/14 04:03:57;;;;;;;5.13;2.05;;;3.70;94.70;;;;;;5118381;28;20035;-79
2022/01/14 04:06:23;;;;;;;6.97;2.60;;;3.70;94.70;;;;;;5119073;28;20050;-79
2022/01/14 04:08:49;;;;;;;5.75;2.30;;;3.70;94.60;;;;;;5118740;28;20031;-79
2022/01/14 04:11:15;;;;;;;7.95;3.00;;;3.70;94.60;;;;;;5119609;28;20172;-79
2022/01/14 04:13:49;;;;;;;6.43;2.88;;;3.70;94.60;;;;;;5118776;28;20444;-79
2022/01/14 04:16:17;;;;;;;8.13;2.38;;;3.60;94.60;;;;;;5137991;27;20066;-79
2022/01/14 04:18:43;;;;;;;6.65;2.92;;;3.70;94.70;;;;;;5102644;28;20031;-80
2022/01/14 04:21:09;;;;;;;6.60;2.30;;;3.60;94.60;;;;;;5101563;28;20042;-79
2022/01/14 04:23:35;;;;;;;5.50;2.40;;;3.60;94.70;;;;;;5118609;28;20031;-79
2022/01/14 04:26:01;;;;;;;7.25;2.90;;;3.60;94.70;;;;;;5118041;28;20093;-79
2022/01/14 04:28:30;;;;;;;9.05;2.92;;;3.60;94.70;;;;;;5137789;27;20043;-80
2022/01/14 04:30:56;;;;;;;5.97;2.50;;;3.70;94.70;;;;;;5102615;28;20043;-79
2022/01/14 04:33:24;;;;;;;6.30;2.50;;;3.60;94.70;;;;;;5085553;28;20043;-79
2022/01/14 04:35:50;;;;;;;7.50;2.42;;;3.60;94.70;;;;;;5119360;28;20047;-79
2022/01/14 04:38:16;;;;;;;6.45;2.58;;;3.60;94.70;;;;;;5119083;28;20131;-79
2022/01/14 04:40:42;;;;;;;7.35;2.55;;;3.70;94.70;;;;;;5103008;28;20050;-79
2022/01/14 04:43:08;;;;;;;7.13;2.42;;;3.60;94.70;;;;;;5120677;28;20071;-80
2022/01/14 04:45:54;;;;;;;6.57;2.33;;;3.60;94.70;;;;;;5120365;28;20473;-80
2022/01/14 04:48:20;;;;;;;5.50;2.42;;;3.60;94.70;;;;;;5120538;28;20519;-80
2022/01/14 04:50:46;;;;;;;8.32;2.95;;;3.60;94.70;;;;;;5085883;28;20130;-79
2022/01/14 04:53:13;;;;;;;6.55;2.42;;;3.60;94.70;;;;;;5103214;27;20041;-79
2022/01/14 04:55:38;;;;;;;5.50;2.22;;;3.60;94.70;;;;;;5120858;28;20045;-79
2022/01/14 04:58:05;;;;;;;7.72;2.95;;;3.60;94.70;;;;;;5121112;28;20031;-79
2022/01/14 05:00:32;;;;;;;8.98;3.22;;;3.60;94.60;;;;;;5121134;28;20039;-79
2022/01/14 05:02:57;;;;;;;9.15;3.25;;;3.60;94.60;;;;;;5140501;28;20054;-79
2022/01/14 05:05:27;;;;;;;7.70;3.30;;;3.60;94.60;;;;;;5103555;28;20043;-79
2022/01/14 05:07:53;;;;;;;9.05;2.90;;;3.60;94.70;;;;;;5138511;28;20043;-79
2022/01/14 05:10:34;;;;;;;11.18;3.50;;;3.60;94.60;;;;;;5139339;28;20117;-79
2022/01/14 05:13:01;;;;;;;6.32;2.65;;;3.50;94.60;;;;;;5138663;28;20031;-79
2022/01/14 05:15:27;;;;;;;6.68;2.83;;;3.60;94.60;;;;;;5102335;28;20597;-79
2022/01/14 05:17:53;;;;;;;6.53;2.75;;;3.70;94.70;;;;;;5138813;28;20043;-79
2022/01/14 05:20:19;;;;;;;7.25;2.70;;;3.60;94.60;;;;;;5138198;28;20035;-79
2022/01/14 05:22:46;;;;;;;6.72;2.65;;;3.50;94.60;;;;;;5119469;28;20433;-79
2022/01/14 05:25:13;;;;;;;6.13;2.53;;;3.70;94.70;;;;;;5118422;28;20458;-79
2022/01/14 05:27:41;;;;;;;5.20;2.10;;;3.70;94.70;;;;;;5137369;28;20041;-79
2022/01/14 05:30:08;;;;;;;5.35;2.30;;;3.60;94.70;;;;;;5118144;28;20050;-79
2022/01/14 05:32:35;;;;;;;5.65;2.33;;;3.60;94.60;;;;;;5137518;28;20124;-79
2022/01/14 05:35:01;;;;;;;4.75;2.00;;;3.60;94.60;;;;;;5135837;28;20043;-79
2022/01/14 05:37:27;;;;;;;7.10;2.60;;;3.70;94.70;;;;;;5103734;28;20393;-79
2022/01/14 05:39:52;;;;;;;5.97;2.47;;;3.70;94.70;;;;;;5137184;28;20035;-79
2022/01/14 05:42:19;;;;;;;6.32;2.20;;;3.70;94.70;;;;;;5100872;28;20035;-79
2022/01/14 05:44:45;;;;;;;4.85;2.08;;;3.80;94.70;;;;;;5136054;28;20043;-79
2022/01/14 05:47:10;;;;;;;6.88;2.47;;;3.80;94.70;;;;;;5117226;28;20050;-79
2022/01/14 05:49:36;;;;;;;4.18;1.60;;;3.70;94.70;;;;;;5084479;28;20043;-79
2022/01/14 05:52:02;;;;;;;5.78;1.85;;;3.70;94.70;;;;;;5101004;28;20099;-79
2022/01/14 05:54:28;;;;;;;5.78;2.28;;;3.70;94.70;;;;;;5118254;28;20552;-79
2022/01/14 05:56:54;;;;;;;6.75;2.13;;;3.80;94.70;;;;;;5136240;28;20042;-79
2022/01/14 05:59:20;;;;;;;5.32;2.03;;;3.70;94.60;;;;;;5101691;28;20104;-79
2022/01/14 06:01:46;;;;;;;5.32;2.10;;;3.70;94.70;;;;;;5102682;28;20035;-79
2022/01/14 06:04:12;;;;;;;5.90;2.20;;;3.70;94.70;;;;;;5101714;28;20065;-79
2022/01/14 06:06:37;;;;;;;8.18;2.50;;;3.80;94.70;;;;;;5136452;28;20046;-79
2022/01/14 06:09:04;;;;;;;6.10;2.28;;;3.80;94.70;;;;;;5118071;28;20035;-79
2022/01/14 06:11:31;;;;;;;4.95;2.10;;;3.80;94.70;;;;;;5136166;27;20043;-79
2022/01/14 06:13:57;;;;;;;6.30;1.77;;;3.80;94.70;;;;;;5117009;28;20039;-78
2022/01/14 06:16:23;;;;;;;8.25;2.70;;;3.80;94.70;;;;;;5100787;28;20074;-79
2022/01/14 06:18:48;;;;;;;6.30;2.13;;;3.90;94.70;;;;;;5100597;28;20043;-79
2022/01/14 06:21:14;;;;;;;8.35;2.60;;;3.70;94.60;;;;;;5100529;28;20148;-80
2022/01/14 06:23:40;;;;;;;5.57;2.22;;;3.80;94.60;;;;;;5100136;28;20043;-80
2022/01/14 06:26:06;;;;;;;5.47;1.98;;;3.80;94.70;;;;;;5098340;28;20070;-79
2022/01/14 06:28:32;;;;;;;6.75;2.17;;;3.80;94.60;;;;;;5117254;27;20416;-78
2022/01/14 06:30:58;;;;;;;4.30;1.98;;;3.70;94.60;;;;;;5098822;28;20037;-78
2022/01/14 06:33:24;;;;;;;5.03;2.10;;;3.70;94.60;;;;;;5116479;28;20043;-78
2022/01/14 06:35:49;;;;;;;3.67;1.85;;;3.70;94.60;;;;;;5098745;27;20417;-78
2022/01/14 06:38:17;;;;;;;4.55;2.15;;;3.80;94.70;;;;;;5134340;28;20039;-79
2022/01/14 06:40:43;;;;;;;4.65;2.15;;;3.70;94.60;;;;;;5134601;27;20039;-79
2022/01/14 06:43:09;;;;;;;6.07;2.30;;;3.70;94.60;;;;;;5116239;27;20046;-78
2022/01/14 06:45:34;;;;;;;9.07;2.80;;;3.80;94.60;;;;;;5081999;28;20031;-78
2022/01/14 06:48:00;;;;;;;6.07;2.40;;;3.70;94.60;;;;;;5099190;28;20117;-78
2022/01/14 06:50:26;;;;;;;6.13;2.35;;;3.70;94.60;;;;;;5115918;28;20028;-78
2022/01/14 06:52:52;;;;;;;5.43;2.28;;;3.70;94.60;;;;;;5116376;28;20050;-78
2022/01/14 06:55:18;;;;;;;5.50;2.35;;;3.70;94.70;;;;;;5115664;28;20493;-78
2022/01/14 06:57:44;;;;;;;5.35;2.40;;;3.70;94.60;;;;;;5116262;28;20044;-79
2022/01/14 07:00:14;;;;;;;4.82;2.20;;;3.70;94.60;;;;;;5115959;28;20039;-79
2022/01/14 07:02:40;;;;;;;4.82;2.45;;;3.70;94.70;;;;;;5115699;28;20075;-79
2022/01/14 07:05:07;;;;;;;5.05;2.40;;;3.70;94.60;;;;;;5115963;28;20104;-79
2022/01/14 07:07:33;;;;;;;6.60;2.40;;;3.70;94.70;;;;;;5135807;28;20394;-79
2022/01/14 07:09:59;;;;;;;6.25;2.38;;;3.60;94.60;;;;;;5100873;28;20051;-78
2022/01/14 07:12:26;;;;;;;7.38;2.80;;;3.60;94.70;;;;;;5115323;28;20039;-79
2022/01/14 07:14:54;;;;;;;7.18;2.78;;;3.60;94.70;;;;;;5115267;28;20478;-80
2022/01/14 07:17:20;;;;;;;7.13;3.28;;;3.60;94.70;;;;;;5133189;28;20039;-80
2022/01/14 07:19:49;;;;;;;7.03;2.97;;;3.60;94.70;;;;;;5098039;28;20043;-80
2022/01/14 07:22:15;;;;;;;7.28;2.95;;;3.50;94.70;;;;;;5115260;28;20035;-80
2022/01/14 07:24:40;;;;;;;6.55;2.83;;;3.60;94.70;;;;;;5097807;28;20043;-80
2022/01/14 07:27:07;;;;;;;6.13;2.75;;;3.60;94.70;;;;;;5097848;28;20555;-79
2022/01/14 07:29:33;;;;;;;7.28;2.55;;;3.60;94.70;;;;;;5097794;28;20058;-80
2022/01/14 07:31:58;;;;;;;6.05;2.50;;;3.60;94.70;;;;;;5098204;28;20047;-79
2022/01/14 07:34:25;;;;;;;4.60;2.05;;;3.60;94.70;;;;;;5133102;27;20104;-79
2022/01/14 07:36:51;;;;;;;5.82;2.60;;;3.60;94.70;;;;;;5114355;28;20035;-79
2022/01/14 07:39:19;;;;;;;5.18;2.13;;;3.60;94.70;;;;;;5132969;28;20046;-79
2022/01/14 07:41:46;;;;;;;7.20;2.50;;;3.60;94.70;;;;;;5114775;28;20444;-79
2022/01/14 07:44:13;;;;;;;5.00;2.45;;;3.50;94.70;;;;;;5115407;28;20134;-80
2022/01/14 07:46:38;;;;;;;6.00;2.50;;;3.60;94.70;;;;;;5114726;28;20443;-79
2022/01/14 07:49:04;;;;;;;5.72;1.95;;;3.60;94.70;;;;;;5098133;28;20095;-79
2022/01/14 07:51:30;;;;;;;5.13;2.13;;;3.80;94.80;;;;;;5116474;28;20125;-82
2022/01/14 07:53:56;;;;;;;7.47;2.80;;;3.50;94.60;;;;;;5099495;28;20502;-82
2022/01/14 07:56:22;;;;;;;5.95;2.40;;;3.60;94.70;;;;;;5097635;28;20069;-81
2022/01/14 07:58:49;;;;;;;5.50;2.40;;;3.60;94.70;;;;;;5097713;28;20047;-81
2022/01/14 08:01:15;;;;;;;4.90;2.45;;;3.60;94.70;;;;;;5097791;28;20061;-80
2022/01/14 08:03:41;;;;;;;5.93;2.53;;;3.70;94.70;;;;;;5133346;27;20043;-79
2022/01/14 08:06:10;;;;;;;6.68;2.13;;;3.60;94.70;;;;;;5132877;28;20054;-78
2022/01/14 08:08:38;;;;;;;6.88;2.45;;;3.70;94.70;;;;;;5114947;28;20039;-78
2022/01/14 08:11:05;;;;;;;6.78;3.15;;;3.70;95.00;;;;;;5097856;28;20379;-78
2022/01/14 08:13:31;;;;;;;7.55;3.40;;;3.60;94.60;;;;;;5097522;28;20031;-78
2022/01/14 08:15:56;;;;;;;7.35;3.30;;;3.60;94.60;;;;;;5114230;28;20048;-78
2022/01/14 08:18:22;;;;;;;5.55;2.35;;;3.60;94.70;;;;;;5132765;27;20069;-78
2022/01/14 08:20:48;;;;;;;6.82;2.90;;;3.60;94.70;;;;;;5097285;28;20104;-78
2022/01/14 08:23:14;;;;;;;5.57;2.63;;;3.60;94.70;;;;;;5132705;28;20059;-79
2022/01/14 08:25:40;;;;;;;4.82;2.22;;;3.60;94.70;;;;;;5114847;28;20490;-78
2022/01/14 08:28:05;;;;;;;6.30;2.40;;;3.60;94.70;;;;;;5133151;28;20035;-79
2022/01/14 08:30:31;;;;;;;5.53;2.08;;;3.60;94.70;;;;;;5114832;28;20130;-78
2022/01/14 08:36:47;;;;;;;6.00;2.20;;;3.70;94.70;;;;;;5031562;28;20052;-79
2022/01/14 08:39:17;;;;;;;5.07;1.90;;;3.70;94.70;;;;;;4984524;28;20445;-79
2022/01/14 08:41:43;;;;;;;5.28;2.10;;;3.70;94.70;;;;;;4993225;28;20042;-79
2022/01/14 08:44:09;;;;;;;4.70;2.25;;;3.70;94.70;;;;;;4993399;28;20100;-79
2022/01/14 08:46:35;;;;;;;5.10;2.05;;;3.70;94.70;;;;;;5012597;28;20125;-79
2022/01/14 08:49:01;;;;;;;3.00;1.50;;;3.70;94.70;;;;;;5029790;28;20037;-78
2022/01/14 08:51:29;;;;;;;5.45;2.08;;;3.70;94.70;;;;;;5016353;28;20187;-79
2022/01/14 08:53:57;;;;;;;4.65;2.20;;;3.80;94.70;;;;;;5016617;28;20132;-78
2022/01/14 08:56:24;;;;;;;4.95;1.90;;;3.80;94.70;;;;;;5032974;28;20052;-78
2022/01/14 08:58:50;;;;;;;5.53;2.03;;;3.80;94.70;;;;;;5016245;28;20605;-79
2022/01/14 09:01:16;;;;;;;5.22;2.08;;;3.90;94.70;;;;;;5015963;28;20084;-78
2022/01/14 09:03:42;;;;;;;5.45;2.10;;;3.80;94.70;;;;;;5016429;28;20046;-79
2022/01/14 09:06:08;;;;;;;3.08;1.50;;;3.80;94.70;;;;;;5009807;28;20047;-79
2022/01/14 09:08:34;;;;;;;3.47;1.55;;;3.90;94.80;;;;;;5042418;28;20044;-78
2022/01/14 09:11:00;;;;;;;4.07;1.77;;;3.90;94.70;;;;;;5128613;28;20042;-78
2022/01/14 09:13:25;;;;;;;5.25;1.90;;;3.90;94.70;;;;;;5135930;28;20046;-78
2022/01/14 09:15:51;;;;;;;3.42;1.70;;;3.90;94.70;;;;;;5099880;27;20482;-79
2022/01/14 09:18:17;;;;;;;5.45;2.30;;;3.90;94.70;;;;;;5117727;28;20043;-78
2022/01/14 09:20:42;;;;;;;5.88;1.92;;;4.00;94.70;;;;;;5100322;28;20394;-78
2022/01/14 09:23:15;;;;;;;4.15;1.80;;;4.00;94.70;;;;;;5083827;28;20117;-79
2022/01/14 09:25:41;;;;;;;2.65;1.50;;;4.00;94.70;;;;;;5100710;28;20064;-78
2022/01/14 09:28:07;;;;;;;3.78;1.52;;;4.00;94.80;;;;;;5083558;28;20039;-78
2022/01/14 09:30:33;;;;;;;3.85;1.55;;;4.00;94.70;;;;;;5083561;28;20074;-78
2022/01/14 09:32:59;;;;;;;4.45;1.88;;;3.90;94.60;;;;;;5083050;28;20490;-78
2022/01/14 09:35:25;;;;;;;4.32;1.70;;;4.00;94.60;;;;;;5082848;28;20099;-78
2022/01/14 09:37:51;;;;;;;4.35;1.90;;;4.10;94.70;;;;;;5135708;28;20043;-77
2022/01/14 09:40:17;;;;;;;4.35;1.67;;;4.10;94.70;;;;;;5135196;28;20119;-76
2022/01/14 09:42:51;;;;;;;5.40;2.00;;;4.10;94.60;;;;;;5100395;28;20078;-76
2022/01/14 09:45:19;;;;;;;3.38;1.73;;;4.00;94.60;;;;;;5115013;28;20035;-76
2022/01/14 09:47:49;;;;;;;3.83;1.80;;;4.10;94.70;;;;;;5099691;28;20042;-77
2022/01/14 09:50:16;;;;;;;5.55;2.10;;;4.10;94.60;;;;;;5117150;28;20366;-76
2022/01/14 09:52:42;;;;;;;6.43;2.30;;;4.00;94.60;;;;;;5082867;28;20078;-77
2022/01/14 09:55:08;;;;;;;4.25;2.03;;;4.10;94.70;;;;;;5099825;28;20119;-77
2022/01/14 09:57:34;;;;;;;3.08;1.45;;;4.10;94.70;;;;;;5116617;28;20125;-77
2022/01/14 10:00:00;;;;;;;5.57;2.05;;;4.20;94.70;;;;;;5099952;28;20114;-77
2022/01/14 10:02:34;;;;;;;4.80;2.03;;;4.20;94.70;;;;;;5116604;28;20040;-77
2022/01/14 10:05:04;;;;;;;5.93;2.00;;;4.20;94.70;;;;;;5116888;28;20529;-77
2022/01/14 10:07:32;;;;;;;4.00;1.75;;;4.20;94.70;;;;;;5116262;28;20474;-77
2022/01/14 10:10:00;;;;;;;4.00;1.80;;;4.10;94.60;;;;;;5116206;28;20481;-76
2022/01/14 10:12:30;;;;;;;5.50;1.83;;;4.20;94.70;;;;;;5134738;28;20046;-76
2022/01/14 10:15:01;;;;;;;4.53;2.27;;;4.30;94.70;;;;;;5134692;28;20046;-76
2022/01/14 10:17:43;;;;;;;6.75;2.30;;;4.30;94.60;;;;;;5134592;28;20039;-77
2022/01/14 10:20:12;;;;;;;3.45;1.70;;;4.30;94.60;;;;;;5114930;28;20455;-76
2022/01/14 10:22:43;;;;;;;4.80;2.08;;;4.30;94.60;;;;;;5134498;28;20046;-77
2022/01/14 10:25:13;;;;;;;5.97;2.35;;;4.30;94.60;;;;;;5133652;28;20039;-77
2022/01/14 10:27:49;;;;;;;5.10;2.10;;;4.40;94.60;;;;;;5114914;28;20043;-76
2022/01/14 10:30:21;;;;;;;4.97;2.05;;;4.30;94.60;;;;;;5098740;28;20450;-77
2022/01/14 10:32:54;;;;;;;5.63;2.10;;;4.40;94.60;;;;;;5082574;28;20115;-76
2022/01/14 10:35:22;;;;;;;5.95;2.33;;;4.40;94.60;;;;;;5116093;28;20039;-77
2022/01/14 10:37:48;;;;;;;6.90;2.38;;;4.40;94.60;;;;;;5116160;28;20042;-77
2022/01/14 10:40:18;;;;;;;6.07;2.22;;;4.40;94.60;;;;;;5134666;28;20031;-76
2022/01/14 10:42:45;;;;;;;5.28;2.03;;;4.40;94.60;;;;;;5099284;28;20043;-76
2022/01/14 10:45:22;;;;;;;4.70;2.10;;;4.40;94.60;;;;;;5115914;28;20067;-76
2022/01/14 10:48:03;;;;;;;5.45;2.28;;;4.40;94.50;;;;;;5101387;28;20035;-77
2022/01/14 10:50:34;;;;;;;4.97;2.42;;;4.40;94.60;;;;;;5097589;28;20092;-77
2022/01/14 10:53:06;;;;;;;4.55;2.38;;;4.40;94.60;;;;;;5099349;28;20131;-77
2022/01/14 10:55:35;;;;;;;5.82;2.17;;;4.40;94.60;;;;;;5082590;28;20039;-77
2022/01/14 10:58:04;;;;;;;6.18;2.20;;;4.60;94.60;;;;;;5115745;28;20043;-76
2022/01/14 11:00:39;;;;;;;5.03;1.95;;;4.50;94.60;;;;;;5081781;28;20525;-77
2022/01/14 11:03:05;;;;;;;4.82;1.90;;;4.50;94.60;;;;;;5081895;28;20039;-76
2022/01/14 11:05:32;;;;;;;5.65;1.92;;;4.50;94.60;;;;;;5115515;28;20043;-76
2022/01/14 11:07:57;;;;;;;3.78;1.60;;;4.50;94.60;;;;;;5082141;28;20049;-76
2022/01/14 11:10:26;;;;;;;4.90;2.10;;;4.50;94.60;;;;;;5081597;28;20039;-77
2022/01/14 11:12:55;;;;;;;4.45;2.00;;;4.50;94.60;;;;;;5097524;28;20047;-77
2022/01/14 11:15:23;;;;;;;5.63;2.50;;;4.50;94.60;;;;;;5115393;28;20054;-76
2022/01/14 11:17:52;;;;;;;5.30;1.92;;;4.50;94.60;;;;;;5081532;28;20043;-77
2022/01/14 11:20:25;;;;;;;5.75;2.28;;;4.50;94.60;;;;;;5115511;28;20031;-77
2022/01/14 11:25:42;;;;;;;4.18;1.90;;;4.40;94.60;;;;;;5117961;28;20047;-77
2022/01/14 11:28:09;;;;;;;4.30;1.67;;;4.70;94.70;;;;;;5098480;28;20137;-77
2022/01/14 11:30:38;;;;;;;3.53;1.65;;;4.50;94.60;;;;;;5115337;28;20060;-77
2022/01/14 11:33:07;;;;;;;4.45;1.90;;;4.60;94.60;;;;;;5115401;28;20043;-77
2022/01/14 11:35:37;;;;;;;5.25;2.10;;;4.60;94.60;;;;;;5098088;28;20131;-78
2022/01/14 11:38:03;;;;;;;3.35;1.52;;;4.60;94.60;;;;;;5115756;28;20043;-77
2022/01/14 11:40:48;;;;;;;4.57;2.08;;;4.60;94.60;;;;;;5115805;28;20039;-77
2022/01/14 11:43:38;;;;;;;7.43;2.20;;;4.60;94.60;;;;;;5095959;28;20515;-77
2022/01/14 11:46:03;;;;;;;4.97;2.13;;;4.70;94.60;;;;;;5114910;28;20035;-77
2022/01/14 11:48:33;;;;;;;4.28;1.45;;;4.70;94.60;;;;;;5114750;28;20495;-77
2022/01/14 11:51:02;;;;;;;5.57;2.10;;;4.70;94.60;;;;;;5115112;28;20047;-77
2022/01/14 11:53:37;;;;;;;4.38;2.00;;;4.70;94.60;;;;;;5097972;28;20138;-78
2022/01/14 11:56:06;;;;;;;3.33;1.45;;;4.70;94.60;;;;;;5131859;28;20043;-78
2022/01/14 11:58:32;;;;;;;4.78;1.88;;;4.70;94.70;;;;;;5114843;28;20493;-79
2022/01/14 12:00:57;;;;;;;4.68;2.17;;;4.90;94.70;;;;;;5114527;28;20037;-79
2022/01/14 12:03:26;;;;;;;5.78;2.30;;;4.80;94.60;;;;;;5097610;28;20066;-80
2022/01/14 12:05:54;;;;;;;6.15;2.50;;;4.80;94.60;;;;;;5114944;28;20043;-79
2022/01/14 12:08:24;;;;;;;4.72;2.15;;;4.80;94.60;;;;;;5133223;27;20035;-78
2022/01/14 12:11:00;;;;;;;4.90;1.67;;;4.80;94.60;;;;;;5080952;28;20039;-78
2022/01/14 12:13:41;;;;;;;6.07;2.20;;;4.80;94.60;;;;;;5113836;28;20043;-78
2022/01/14 12:19:09;;;;;;;5.70;2.55;;;4.70;94.50;;;;;;5132939;27;20127;-78
2022/01/14 12:21:55;;;;;;;5.95;2.50;;;4.80;94.60;;;;;;5115652;28;20031;-78
2022/01/14 12:24:32;;;;;;;6.50;2.17;;;4.80;94.60;;;;;;5102968;28;20035;-79
2022/01/14 12:27:19;;;;;;;4.82;2.20;;;4.80;94.60;;;;;;5136198;27;20070;-78
2022/01/14 12:29:49;;;;;;;8.18;2.72;;;4.80;94.60;;;;;;5117810;28;20482;-78
2022/01/14 12:32:19;;;;;;;5.13;2.22;;;4.80;94.50;;;;;;5136283;28;20043;-78
2022/01/14 12:35:03;;;;;;;6.97;2.65;;;4.80;94.80;;;;;;5081988;28;20054;-79
2022/01/14 12:37:33;;;;;;;5.90;2.25;;;4.80;94.60;;;;;;5084165;28;20091;-78
2022/01/14 12:40:07;;;;;;;4.68;2.25;;;4.90;94.50;;;;;;5118971;28;20462;-78
2022/01/14 12:42:34;;;;;;;5.53;2.25;;;4.90;94.50;;;;;;5117828;28;20031;-77
2022/01/14 12:45:00;;;;;;;4.95;2.10;;;4.90;94.50;;;;;;5136214;28;20129;-78
2022/01/14 12:47:32;;;;;;;7.80;2.72;;;5.00;94.50;;;;;;5136130;28;20031;-78
2022/01/14 12:50:04;;;;;;;5.65;2.45;;;5.00;94.50;;;;;;5101877;28;20041;-78
2022/01/14 12:52:38;;;;;;;5.05;2.17;;;5.00;94.50;;;;;;5117619;28;20050;-79
2022/01/14 12:55:07;;;;;;;4.47;1.90;;;5.00;94.40;;;;;;5119390;28;20043;-78
2022/01/14 12:57:33;;;;;;;5.65;2.40;;;5.00;94.40;;;;;;5136424;28;20135;-78
2022/01/14 12:59:58;;;;;;;4.28;2.30;;;5.00;94.40;;;;;;5083488;28;20067;-78
2022/01/14 13:02:29;;;;;;;6.22;2.72;;;5.00;94.50;;;;;;5135787;28;20049;-78
2022/01/14 13:05:07;;;;;;;4.72;2.15;;;5.00;94.40;;;;;;5117291;28;20398;-78
2022/01/14 13:07:34;;;;;;;7.03;2.55;;;5.00;94.40;;;;;;5116778;28;20075;-78
2022/01/14 13:10:02;;;;;;;4.85;2.28;;;5.00;94.40;;;;;;5100317;28;20047;-78
2022/01/14 13:12:33;;;;;;;6.85;2.55;;;5.00;94.40;;;;;;5136280;28;20122;-78
2022/01/14 13:15:02;;;;;;;7.75;3.20;;;5.00;94.40;;;;;;5100971;28;20047;-78
2022/01/14 13:17:33;;;;;;;5.68;3.03;;;5.00;94.40;;;;;;5117860;28;20039;-78
2022/01/14 13:20:04;;;;;;;6.07;2.77;;;5.00;94.40;;;;;;5117806;28;20058;-78
2022/01/14 13:22:30;;;;;;;5.90;3.07;;;5.10;94.50;;;;;;5100789;28;20269;-78
2022/01/14 13:25:00;;;;;;;5.50;2.53;;;5.00;94.40;;;;;;5100390;28;20039;-78
2022/01/14 13:27:29;;;;;;;4.25;2.08;;;5.00;94.40;;;;;;5100319;28;20102;-78
2022/01/14 13:30:00;;;;;;;5.28;2.25;;;5.00;94.40;;;;;;5133536;28;20042;-78
2022/01/14 13:32:34;;;;;;;;;;;5.00;94.50;;;;;;5135758;28;20047;-78
2022/01/14 13:35:14;;;;;;;5.70;2.47;;;5.00;94.50;;;;;;5116272;28;19911;-78